createdAt,value
2023-04-21T00:00:42.806Z,18.90
2023-04-21T00:01:43.870Z,18.20
2023-04-21T00:02:55.587Z,17.40
2023-04-21T00:03:54.077Z,17.20
2023-04-21T00:05:15.950Z,17.90
2023-04-21T00:06:23.809Z,18.20
2023-04-21T00:07:16.929Z,16.90
2023-04-21T00:08:25.319Z,17.00
2023-04-21T00:16:42.758Z,16.80
2023-04-21T00:18:16.821Z,17.50
2023-04-21T00:19:18.167Z,17.70
2023-04-21T00:20:17.822Z,19.00
2023-04-21T00:21:17.758Z,18.30
2023-04-21T00:22:17.790Z,18.90
2023-04-21T00:25:38.404Z,21.50
2023-04-21T00:27:24.891Z,21.80
2023-04-21T00:28:47.797Z,20.60
2023-04-21T00:30:17.912Z,20.00
2023-04-21T00:33:17.327Z,20.30
2023-04-21T00:39:32.703Z,16.90
2023-04-21T00:40:38.679Z,16.10
2023-04-21T00:41:58.708Z,15.30
2023-04-21T00:42:26.048Z,16.30
2023-04-21T00:43:27.683Z,16.40
2023-04-21T00:45:07.142Z,17.40
2023-04-21T00:45:41.343Z,17.10
2023-04-21T00:51:07.833Z,17.20
2023-04-21T00:52:29.481Z,17.00
2023-04-21T00:53:25.481Z,17.50
2023-04-21T00:54:18.973Z,18.50
2023-04-21T00:58:14.058Z,20.00
2023-04-21T01:02:26.835Z,19.70
2023-04-21T01:04:49.418Z,17.30
2023-04-21T01:08:43.910Z,17.30
2023-04-21T01:10:23.375Z,18.70
2023-04-21T01:10:47.634Z,18.20
2023-04-21T01:13:06.505Z,16.20
2023-04-21T01:14:25.469Z,17.40
2023-04-21T01:17:31.140Z,18.80
2023-04-21T01:22:48.751Z,21.40
2023-04-21T01:26:52.581Z,18.70
2023-04-21T01:28:02.065Z,18.60
2023-04-21T01:28:41.115Z,19.40
2023-04-21T01:29:44.570Z,19.70
2023-04-21T01:30:14.027Z,19.80
2023-04-21T01:32:13.643Z,18.70
2023-04-21T01:32:59.090Z,19.10
2023-04-21T01:33:29.136Z,19.80
2023-04-21T01:36:58.798Z,19.40
2023-04-21T01:37:45.287Z,18.80
2023-04-21T01:38:40.164Z,16.20
2023-04-21T01:42:37.858Z,14.30
2023-04-21T01:43:27.899Z,14.90
2023-04-21T01:44:14.439Z,15.40
2023-04-21T01:47:35.958Z,14.90
2023-04-21T01:48:29.535Z,14.10
2023-04-21T01:49:21.439Z,14.30
2023-04-21T02:02:32.455Z,14.90
2023-04-21T02:03:23.624Z,15.30
2023-04-21T02:04:42.861Z,15.60
2023-04-21T02:05:26.918Z,15.90
2023-04-21T02:07:51.928Z,14.70
2023-04-21T02:17:47.542Z,13.20
2023-04-21T02:22:46.530Z,10.80
2023-04-21T02:39:32.959Z,14.00
2023-04-21T02:40:24.943Z,13.10
2023-04-21T02:41:24.884Z,13.90
2023-04-21T02:43:35.008Z,13.90
2023-04-21T02:45:34.193Z,14.10
2023-04-21T02:46:59.689Z,15.30
2023-04-21T02:47:51.246Z,15.20
2023-04-21T02:49:14.804Z,15.60
2023-04-21T02:49:53.517Z,14.90
2023-04-21T02:50:51.845Z,14.90
2023-04-21T02:51:51.111Z,14.70
2023-04-21T02:52:52.916Z,14.80
2023-04-21T02:53:54.355Z,14.40
2023-04-21T02:54:52.381Z,13.30
2023-04-21T02:55:51.928Z,13.40
2023-04-21T02:56:52.931Z,13.50
2023-04-21T02:57:51.298Z,13.20
2023-04-21T02:58:51.085Z,12.40
2023-04-21T02:59:51.033Z,11.70
2023-04-21T03:00:57.848Z,12.60
2023-04-21T03:01:50.977Z,11.20
2023-04-21T03:02:55.731Z,11.70
2023-04-21T03:05:01.066Z,14.20
2023-04-21T03:06:02.016Z,14.50
2023-04-21T03:07:11.252Z,15.60
2023-04-21T03:11:38.890Z,11.10
2023-04-21T03:17:14.001Z,12.10
2023-04-21T03:18:14.372Z,12.60
2023-04-21T03:19:16.066Z,13.10
2023-04-21T03:20:19.516Z,13.10
2023-04-21T03:21:30.056Z,11.70
2023-04-21T03:24:04.746Z,13.50
2023-04-21T03:25:10.889Z,14.60
2023-04-21T03:26:15.389Z,14.70
2023-04-21T03:27:05.732Z,14.80
2023-04-21T03:29:16.369Z,15.10
2023-04-21T03:31:55.800Z,14.10
2023-04-21T03:32:33.652Z,14.50
2023-04-21T03:33:33.550Z,16.30
2023-04-21T03:35:37.197Z,15.10
2023-04-21T03:36:20.209Z,15.10
2023-04-21T03:36:43.214Z,14.80
2023-04-21T03:39:19.871Z,14.10
2023-04-21T03:40:06.264Z,14.60
2023-04-21T03:40:49.718Z,16.40
2023-04-21T03:43:24.845Z,16.50
2023-04-21T03:44:01.781Z,17.70
2023-04-21T03:55:20.759Z,13.30
2023-04-21T03:55:56.421Z,13.60
2023-04-21T04:00:30.489Z,14.80
2023-04-21T04:02:55.300Z,16.10
2023-04-21T04:05:02.287Z,15.70
2023-04-21T04:06:11.718Z,15.80
2023-04-21T04:06:50.542Z,16.50
2023-04-21T04:08:14.418Z,17.00
2023-04-21T04:09:53.723Z,17.20
2023-04-21T04:11:21.776Z,17.10
2023-04-21T04:12:22.760Z,16.90
2023-04-21T04:13:22.757Z,16.60
2023-04-21T04:15:01.506Z,17.10
2023-04-21T04:16:03.389Z,15.80
2023-04-21T04:16:40.927Z,16.40
2023-04-21T04:23:29.281Z,17.50
2023-04-21T04:24:23.316Z,17.40
2023-04-21T04:28:43.804Z,14.50
2023-04-21T04:29:33.870Z,14.60
2023-04-21T04:30:40.829Z,14.20
2023-04-21T04:31:33.893Z,15.20
2023-04-21T04:32:34.863Z,15.00
2023-04-21T04:33:33.860Z,14.80
2023-04-21T04:34:36.140Z,14.60
2023-04-21T04:36:01.692Z,15.30
2023-04-21T04:36:45.497Z,16.70
2023-04-21T04:38:39.223Z,15.80
2023-04-21T04:41:20.990Z,31.50
2023-04-21T04:42:21.931Z,32.50
2023-04-21T04:43:45.104Z,32.30
2023-04-21T04:45:03.314Z,33.10
2023-04-21T04:45:24.958Z,30.90
2023-04-21T04:49:21.690Z,32.60
2023-04-21T04:50:15.836Z,33.10
2023-04-21T04:51:33.884Z,35.10
2023-04-21T04:54:04.876Z,31.00
2023-04-21T04:55:06.016Z,30.80
2023-04-21T04:56:54.035Z,31.40
2023-04-21T04:59:42.462Z,30.90
2023-04-21T05:02:50.273Z,30.50
2023-04-21T05:05:17.067Z,35.10
2023-04-21T05:06:26.391Z,36.20
2023-04-21T05:09:09.014Z,38.00
2023-04-21T05:10:05.062Z,40.00
2023-04-21T05:10:14.373Z,39.10
2023-04-21T05:11:14.451Z,38.30
2023-04-21T05:12:47.500Z,38.90
2023-04-21T05:13:51.053Z,37.50
2023-04-21T05:14:34.122Z,34.80
2023-04-21T05:15:14.387Z,37.10
2023-04-21T05:17:24.417Z,36.90
2023-04-21T05:20:28.132Z,35.60
2023-04-21T05:20:37.707Z,38.20
2023-04-21T05:21:36.530Z,36.40
2023-04-21T05:22:41.623Z,36.00
2023-04-21T05:23:49.180Z,37.40
2023-04-21T05:26:26.240Z,35.80
2023-04-21T05:27:00.258Z,37.80
2023-04-21T05:29:11.473Z,35.80
2023-04-21T05:30:09.060Z,37.40
2023-04-21T05:31:09.950Z,35.80
2023-04-21T05:32:16.557Z,36.90
2023-04-21T05:33:52.475Z,35.50
2023-04-21T05:34:41.422Z,36.00
2023-04-21T05:35:57.418Z,35.40
2023-04-21T05:38:31.137Z,38.50
2023-04-21T05:39:59.609Z,39.60
2023-04-21T05:40:31.988Z,38.30
2023-04-21T05:41:32.139Z,37.50
2023-04-21T05:42:31.976Z,36.40
2023-04-21T05:43:31.992Z,38.70
2023-04-21T05:44:31.929Z,37.80
2023-04-21T05:45:31.960Z,37.50
2023-04-21T05:46:32.012Z,37.30
2023-04-21T05:47:31.994Z,39.20
2023-04-21T05:48:31.920Z,37.00
2023-04-21T05:49:32.056Z,38.60
2023-04-21T05:50:32.513Z,37.70
2023-04-21T05:51:31.914Z,37.20
2023-04-21T05:54:20.288Z,37.10
2023-04-21T05:54:45.181Z,37.60
2023-04-21T05:57:07.743Z,38.70
2023-04-21T05:57:54.050Z,39.60
2023-04-21T05:58:54.438Z,37.70
2023-04-21T05:59:54.046Z,38.30
2023-04-21T06:00:54.187Z,37.20
2023-04-21T06:01:54.116Z,39.50
2023-04-21T06:02:56.877Z,39.80
2023-04-21T06:03:54.086Z,40.80
2023-04-21T06:04:54.256Z,39.90
2023-04-21T06:05:53.948Z,36.10
2023-04-21T06:06:54.260Z,39.40
2023-04-21T06:07:53.899Z,39.60
2023-04-21T06:08:53.889Z,38.80
2023-04-21T06:09:53.884Z,38.00
2023-04-21T06:10:53.875Z,39.20
2023-04-21T06:11:53.848Z,40.30
2023-04-21T06:12:53.850Z,38.60
2023-04-21T06:13:53.811Z,43.30
2023-04-21T06:14:53.844Z,42.00
2023-04-21T06:15:53.825Z,42.00
2023-04-21T06:16:53.896Z,41.70
2023-04-21T06:17:54.019Z,42.20
2023-04-21T06:18:54.055Z,42.30
2023-04-21T06:21:09.077Z,43.80
2023-04-21T06:24:24.639Z,43.20
2023-04-21T06:25:11.051Z,44.60
2023-04-21T06:26:09.423Z,42.90
2023-04-21T06:27:13.169Z,44.00
2023-04-21T06:28:36.590Z,43.70
2023-04-21T06:31:51.118Z,41.10
2023-04-21T06:33:52.506Z,43.20
2023-04-21T06:34:45.848Z,44.10
2023-04-21T06:35:55.572Z,44.80
2023-04-21T06:36:45.847Z,43.70
2023-04-21T06:37:45.823Z,44.50
2023-04-21T06:38:45.830Z,44.70
2023-04-21T06:39:55.028Z,44.00
2023-04-21T06:40:53.566Z,42.50
2023-04-21T06:42:03.605Z,43.20
2023-04-21T06:42:52.510Z,43.40
2023-04-21T06:43:49.100Z,43.50
2023-04-21T06:44:53.022Z,43.60
2023-04-21T06:45:50.100Z,43.30
2023-04-21T06:46:45.795Z,42.70
2023-04-21T06:47:51.023Z,42.80
2023-04-21T06:48:45.671Z,42.00
2023-04-21T06:49:45.972Z,40.20
2023-04-21T06:50:45.652Z,42.00
2023-04-21T06:51:45.636Z,40.10
2023-04-21T06:52:53.559Z,38.50
2023-04-21T06:53:45.633Z,39.70
2023-04-21T06:54:45.631Z,41.30
2023-04-21T06:55:45.606Z,44.10
2023-04-21T06:56:51.570Z,41.80
2023-04-21T06:57:45.617Z,43.40
2023-04-21T06:58:45.575Z,42.50
2023-04-21T06:59:45.520Z,42.30
2023-04-21T07:00:48.113Z,40.90
2023-04-21T07:01:45.536Z,39.60
2023-04-21T07:02:48.053Z,40.10
2023-04-21T07:03:45.609Z,39.60
2023-04-21T07:04:45.623Z,39.40
2023-04-21T07:05:45.485Z,38.60
2023-04-21T07:06:48.589Z,37.90
2023-04-21T07:07:45.422Z,39.60
2023-04-21T07:08:49.076Z,40.30
2023-04-21T07:09:45.952Z,39.80
2023-04-21T07:10:45.432Z,41.00
2023-04-21T07:11:45.378Z,41.50
2023-04-21T07:12:48.104Z,40.40
2023-04-21T07:13:45.398Z,41.40
2023-04-21T07:14:45.350Z,40.70
2023-04-21T07:15:45.358Z,40.60
2023-04-21T07:16:45.392Z,40.50
2023-04-21T07:18:00.001Z,39.60
2023-04-21T07:18:45.351Z,40.90
2023-04-21T07:19:45.300Z,39.00
2023-04-21T07:20:45.308Z,39.00
2023-04-21T07:22:55.879Z,36.30
2023-04-21T07:24:06.166Z,37.10
2023-04-21T07:24:56.841Z,38.20
2023-04-21T07:25:56.881Z,36.60
2023-04-21T07:26:57.033Z,34.50
2023-04-21T07:27:56.833Z,36.30
2023-04-21T07:28:56.905Z,36.10
2023-04-21T07:30:11.568Z,33.20
2023-04-21T07:32:06.905Z,33.00
2023-04-21T07:33:07.986Z,32.60
2023-04-21T07:34:07.863Z,32.90
2023-04-21T07:35:07.982Z,34.10
2023-04-21T07:36:14.475Z,33.40
2023-04-21T07:37:07.933Z,33.50
2023-04-21T07:38:07.850Z,34.00
2023-04-21T07:39:07.907Z,33.40
2023-04-21T07:40:16.031Z,33.80
2023-04-21T07:42:53.535Z,33.00
2023-04-21T07:44:11.531Z,33.80
2023-04-21T07:44:37.032Z,31.80
2023-04-21T07:52:50.619Z,29.90
2023-04-21T07:53:50.435Z,30.40
2023-04-21T07:54:54.794Z,29.30
2023-04-21T07:55:56.940Z,28.40
2023-04-21T07:56:50.396Z,29.10
2023-04-21T07:57:50.364Z,27.40
2023-04-21T07:58:50.337Z,25.70
2023-04-21T07:59:50.336Z,25.50
2023-04-21T08:00:50.285Z,25.70
2023-04-21T08:01:50.332Z,25.40
2023-04-21T08:02:50.449Z,25.90
2023-04-21T08:03:50.347Z,23.80
2023-04-21T08:04:57.040Z,21.30
2023-04-21T08:05:50.801Z,24.30
2023-04-21T08:06:50.551Z,22.50
2023-04-21T08:07:50.250Z,23.60
2023-04-21T08:08:50.274Z,22.40
2023-04-21T08:09:51.058Z,23.40
2023-04-21T08:10:50.209Z,23.40
2023-04-21T08:11:53.558Z,22.10
2023-04-21T08:12:54.824Z,22.80
2023-04-21T08:13:50.192Z,20.80
2023-04-21T08:14:50.216Z,19.30
2023-04-21T08:16:13.757Z,22.50
2023-04-21T08:16:50.241Z,21.40
2023-04-21T08:17:50.155Z,19.10
2023-04-21T08:18:50.112Z,18.50
2023-04-21T08:19:51.039Z,19.60
2023-04-21T08:20:59.612Z,19.50
2023-04-21T08:21:53.539Z,18.00
2023-04-21T08:23:11.157Z,20.10
2023-04-21T08:23:55.070Z,18.90
2023-04-21T08:26:11.737Z,17.40
2023-04-21T08:27:11.309Z,17.50
2023-04-21T08:28:10.218Z,18.80
2023-04-21T08:29:07.709Z,17.90
2023-04-21T08:30:07.404Z,18.60
2023-04-21T08:31:11.337Z,17.20
2023-04-21T08:32:10.312Z,17.20
2023-04-21T08:33:07.492Z,17.80
2023-04-21T08:34:14.405Z,16.50
2023-04-21T08:37:42.768Z,14.30
2023-04-21T08:38:41.756Z,15.40
2023-04-21T08:40:12.756Z,15.80
2023-04-21T08:40:46.794Z,14.20
2023-04-21T08:41:29.980Z,13.60
2023-04-21T08:42:33.748Z,12.70
2023-04-21T08:43:41.759Z,13.30
2023-04-21T08:44:53.749Z,12.60
2023-04-21T08:45:44.676Z,12.30
2023-04-21T08:46:29.996Z,12.70
2023-04-21T08:47:29.911Z,12.60
2023-04-21T08:48:29.906Z,12.70
2023-04-21T08:49:41.773Z,14.40
2023-04-21T08:51:42.655Z,14.10
2023-04-21T08:55:17.454Z,12.40
2023-04-21T08:56:11.134Z,12.50
2023-04-21T08:57:15.121Z,12.40
2023-04-21T08:58:07.365Z,11.30
2023-04-21T08:59:13.093Z,4.20
2023-04-21T09:00:17.037Z,3.10
2023-04-21T09:01:27.691Z,3.30
2023-04-21T09:02:29.776Z,3.20
2023-04-21T09:03:16.181Z,3.30
2023-04-21T09:04:07.428Z,3.40
2023-04-21T09:05:07.883Z,3.20
2023-04-21T09:06:26.593Z,3.00
2023-04-21T09:07:08.618Z,3.40
2023-04-21T09:09:26.321Z,2.90
2023-04-21T09:10:29.193Z,3.10
2023-04-21T09:11:21.600Z,3.50
2023-04-21T09:12:21.584Z,3.60
2023-04-21T09:13:21.572Z,3.60
2023-04-21T09:14:21.619Z,3.60
2023-04-21T09:15:21.628Z,4.20
2023-04-21T09:20:52.142Z,3.80
2023-04-21T09:22:21.926Z,4.20
2023-04-21T09:26:09.768Z,4.00
2023-04-21T09:26:36.912Z,4.30
2023-04-21T09:27:35.941Z,4.40
2023-04-21T09:28:45.397Z,4.30
2023-04-21T09:29:57.881Z,3.90
2023-04-21T09:36:25.344Z,3.80
2023-04-21T09:38:13.417Z,4.10
2023-04-21T09:39:08.993Z,4.10
2023-04-21T09:43:10.194Z,4.10
2023-04-21T09:45:20.492Z,4.10
2023-04-21T09:45:41.554Z,4.20
2023-04-21T09:47:33.719Z,3.90
2023-04-21T09:53:40.072Z,3.40
2023-04-21T09:55:40.712Z,3.90
2023-04-21T09:56:37.874Z,3.70
2023-04-21T09:57:39.753Z,3.70
2023-04-21T09:58:39.308Z,4.20
2023-04-21T09:59:36.246Z,4.00
2023-04-21T10:00:43.827Z,3.90
2023-04-21T10:01:39.349Z,3.90
2023-04-21T10:02:39.390Z,4.00
2023-04-21T10:04:08.415Z,3.90
2023-04-21T10:04:44.507Z,3.50
2023-04-21T10:05:56.324Z,3.70
2023-04-21T10:09:12.845Z,4.30
2023-04-21T10:10:06.199Z,4.20
2023-04-21T10:12:39.278Z,4.00
2023-04-21T10:12:49.954Z,4.10
2023-04-21T10:13:56.312Z,4.20
2023-04-21T10:15:17.278Z,3.70
2023-04-21T10:16:12.868Z,3.70
2023-04-21T10:16:41.001Z,3.30
2023-04-21T10:18:20.364Z,3.60
2023-04-21T10:19:44.112Z,3.40
2023-04-21T10:19:49.735Z,3.00
2023-04-21T10:21:00.856Z,3.00
2023-04-21T10:23:03.107Z,3.20
2023-04-21T10:24:04.134Z,3.50
2023-04-21T10:29:40.079Z,3.10
2023-04-21T10:30:32.004Z,3.10
2023-04-21T10:31:55.810Z,3.30
2023-04-21T10:32:32.108Z,2.60
2023-04-21T10:34:16.861Z,2.90
2023-04-21T10:35:04.964Z,3.40
2023-04-21T10:35:50.402Z,3.20
2023-04-21T10:37:23.849Z,2.90
2023-04-21T10:38:21.681Z,2.80
2023-04-21T10:38:34.836Z,3.20
2023-04-21T10:39:36.952Z,3.00
2023-04-21T10:40:57.410Z,3.00
2023-04-21T10:41:31.821Z,2.80
2023-04-21T10:42:31.854Z,2.80
2023-04-21T10:43:34.791Z,3.00
2023-04-21T10:45:04.434Z,3.00
2023-04-21T10:46:47.454Z,3.10
2023-04-21T10:48:21.987Z,2.20
2023-04-21T10:49:06.872Z,2.40
2023-04-21T10:50:06.826Z,2.70
2023-04-21T10:51:06.817Z,2.70
2023-04-21T10:52:07.587Z,2.60
2023-04-21T10:53:46.536Z,2.50
2023-04-21T10:55:35.597Z,2.50
2023-04-21T10:56:18.618Z,2.50
2023-04-21T10:57:45.585Z,2.60
2023-04-21T10:58:25.549Z,2.20
2023-04-21T10:59:17.843Z,2.40
2023-04-21T11:00:17.988Z,2.30
2023-04-21T11:01:18.062Z,1.80
2023-04-21T11:03:05.706Z,1.80
2023-04-21T11:04:16.338Z,2.00
2023-04-21T11:05:01.180Z,2.30
2023-04-21T11:05:44.914Z,2.00
2023-04-21T11:06:27.272Z,2.00
2023-04-21T11:09:21.485Z,2.00
2023-04-21T11:10:50.410Z,2.10
2023-04-21T11:13:04.444Z,1.90
2023-04-21T11:14:03.779Z,2.00
2023-04-21T11:16:48.370Z,2.10
2023-04-21T11:17:42.215Z,2.40
2023-04-21T11:19:58.777Z,2.30
2023-04-21T11:22:27.201Z,2.00
2023-04-21T11:22:39.231Z,2.00
2023-04-21T11:29:03.333Z,2.30
2023-04-21T11:29:20.405Z,2.30
2023-04-21T11:30:27.332Z,1.80
2023-04-21T11:31:35.889Z,1.60
2023-04-21T11:32:51.278Z,2.00
2023-04-21T11:34:29.580Z,2.00
2023-04-21T11:35:32.366Z,2.00
2023-04-21T11:36:44.339Z,1.90
2023-04-21T11:37:54.322Z,2.30
2023-04-21T11:38:30.374Z,1.80
2023-04-21T11:39:30.412Z,2.10
2023-04-21T11:40:33.375Z,2.00
2023-04-21T11:41:30.382Z,2.00
2023-04-21T11:42:30.326Z,1.80
2023-04-21T11:43:30.345Z,1.80
2023-04-21T11:44:30.298Z,2.10
2023-04-21T11:45:30.331Z,2.10
2023-04-21T11:46:30.339Z,2.20
2023-04-21T11:47:30.408Z,2.20
2023-04-21T11:48:30.260Z,2.40
2023-04-21T11:49:30.264Z,2.20
2023-04-21T11:50:30.328Z,1.90
2023-04-21T11:51:30.229Z,1.90
2023-04-21T11:52:30.199Z,2.00
2023-04-21T11:53:30.230Z,2.10
2023-04-21T11:59:16.986Z,2.00
2023-04-21T12:00:16.446Z,2.10
2023-04-21T12:01:07.979Z,1.70
2023-04-21T12:02:07.296Z,1.90
2023-04-21T12:03:12.103Z,2.00
2023-04-21T12:04:12.033Z,2.00
2023-04-21T12:06:35.534Z,1.80
2023-04-21T12:07:51.032Z,2.30
2023-04-21T12:08:34.441Z,2.10
2023-04-21T12:10:01.273Z,2.00
2023-04-21T12:10:56.088Z,2.20
2023-04-21T12:11:49.080Z,2.10
2023-04-21T12:12:50.569Z,1.90
2023-04-21T12:13:18.337Z,2.00
2023-04-21T12:14:21.477Z,2.10
2023-04-21T12:15:39.453Z,2.20
2023-04-21T12:16:56.498Z,2.00
2023-04-21T12:17:27.039Z,2.30
2023-04-21T12:18:18.133Z,2.10
2023-04-21T12:19:18.218Z,2.10
2023-04-21T12:20:18.152Z,2.10
2023-04-21T12:21:18.112Z,2.00
2023-04-21T12:22:18.079Z,2.00
2023-04-21T12:23:18.085Z,2.00
2023-04-21T12:24:18.063Z,2.30
2023-04-21T12:25:18.081Z,2.40
2023-04-21T12:26:18.096Z,2.50
2023-04-21T12:27:18.076Z,2.20
2023-04-21T12:28:29.005Z,2.30
2023-04-21T12:31:08.568Z,2.30
2023-04-21T12:32:24.161Z,2.50
2023-04-21T12:33:09.635Z,2.80
2023-04-21T12:35:47.176Z,2.80
2023-04-21T12:36:23.252Z,2.90
2023-04-21T12:39:51.732Z,2.20
2023-04-21T12:40:47.685Z,2.80
2023-04-21T12:41:47.719Z,2.60
2023-04-21T12:42:54.323Z,2.50
2023-04-21T12:43:47.691Z,2.40
2023-04-21T12:46:05.861Z,2.70
2023-04-21T12:48:30.643Z,3.00
2023-04-21T12:49:18.413Z,3.10
2023-04-21T12:50:18.471Z,2.60
2023-04-21T12:51:18.401Z,3.50
2023-04-21T12:52:18.561Z,3.40
2023-04-21T12:53:43.120Z,3.40
2023-04-21T12:54:50.606Z,3.40
2023-04-21T12:56:04.118Z,3.00
2023-04-21T12:56:42.157Z,3.00
2023-04-21T12:58:52.117Z,2.80
2023-04-21T12:59:40.595Z,3.00
2023-04-21T13:00:29.986Z,2.70
2023-04-21T13:01:36.579Z,3.10
2023-04-21T13:02:30.074Z,2.70
2023-04-21T13:03:30.073Z,2.60
2023-04-21T13:04:30.120Z,2.50
2023-04-21T13:05:33.831Z,3.10
2023-04-21T13:07:50.115Z,3.50
2023-04-21T13:10:16.484Z,3.60
2023-04-21T13:11:06.999Z,3.50
2023-04-21T13:12:23.004Z,3.10
2023-04-21T13:13:31.011Z,3.30
2023-04-21T13:14:19.365Z,3.30
2023-04-21T13:14:53.350Z,3.00
2023-04-21T13:16:01.473Z,3.00
2023-04-21T13:17:01.497Z,3.10
2023-04-21T13:17:59.001Z,3.30
2023-04-21T13:20:08.481Z,2.80
2023-04-21T13:21:04.621Z,2.90
2023-04-21T13:22:05.968Z,3.00
2023-04-21T13:23:04.582Z,3.40
2023-04-21T13:24:05.965Z,3.80
2023-04-21T13:25:04.629Z,3.50
2023-04-21T13:26:04.545Z,3.80
2023-04-21T13:28:20.364Z,3.20
2023-04-21T13:30:51.184Z,3.60
2023-04-21T13:32:43.767Z,3.50
2023-04-21T13:33:44.651Z,3.40
2023-04-21T13:34:47.373Z,2.90
2023-04-21T13:36:03.874Z,3.50
2023-04-21T13:36:50.386Z,3.40
2023-04-21T13:37:58.911Z,4.00
2023-04-21T13:38:54.293Z,4.10
2023-04-21T13:41:47.341Z,3.70
2023-04-21T13:43:36.495Z,3.70
2023-04-21T13:44:32.825Z,4.00
2023-04-21T13:45:28.979Z,3.60
2023-04-21T13:46:34.970Z,3.30
2023-04-21T13:47:09.867Z,3.60
2023-04-21T13:48:09.325Z,4.00
2023-04-21T13:57:23.402Z,4.50
2023-04-21T13:57:57.499Z,4.40
2023-04-21T13:59:25.810Z,4.40
2023-04-21T14:00:16.986Z,4.10
2023-04-21T14:02:06.381Z,4.30
2023-04-21T14:03:14.147Z,4.20
2023-04-21T14:05:19.562Z,4.10
2023-04-21T14:05:40.225Z,4.50
2023-04-21T14:06:24.936Z,4.10
2023-04-21T14:07:26.425Z,4.40
2023-04-21T14:08:44.310Z,4.90
2023-04-21T14:09:50.384Z,4.20
2023-04-21T14:10:43.379Z,4.90
2023-04-21T14:11:30.870Z,4.50
2023-04-21T14:12:24.931Z,4.30
2023-04-21T14:13:35.034Z,4.10
2023-04-21T14:14:37.916Z,4.30
2023-04-21T14:15:24.998Z,3.90
2023-04-21T14:16:53.565Z,3.70
2023-04-21T14:17:59.903Z,4.20
2023-04-21T14:18:33.862Z,4.00
2023-04-21T14:19:43.818Z,4.50
2023-04-21T14:22:09.068Z,4.20
2023-04-21T14:22:40.154Z,3.70
2023-04-21T14:24:47.171Z,4.10
2023-04-21T14:25:48.166Z,3.80
2023-04-21T14:28:25.780Z,3.90
2023-04-21T14:31:04.045Z,4.60
2023-04-21T14:33:13.142Z,4.00
2023-04-21T14:34:02.755Z,4.20
2023-04-21T14:34:46.020Z,4.20
2023-04-21T14:35:39.299Z,4.00
2023-04-21T14:36:41.172Z,4.10
2023-04-21T14:38:12.186Z,3.80
2023-04-21T14:38:50.727Z,4.00
2023-04-21T14:39:51.666Z,3.70
2023-04-21T14:41:15.651Z,4.00
2023-04-21T14:42:02.235Z,3.80
2023-04-21T14:42:51.182Z,3.60
2023-04-21T14:43:54.245Z,3.80
2023-04-21T14:45:32.177Z,3.20
2023-04-21T14:47:39.491Z,4.00
2023-04-21T14:48:24.020Z,3.70
2023-04-21T14:49:57.451Z,3.40
2023-04-21T14:50:13.036Z,3.70
2023-04-21T14:51:13.097Z,3.60
2023-04-21T14:53:44.733Z,3.80
2023-04-21T14:54:24.162Z,3.90
2023-04-21T14:55:24.808Z,4.00
2023-04-21T15:00:04.229Z,4.00
2023-04-21T15:02:02.999Z,3.80
2023-04-21T15:06:36.713Z,2.40
2023-04-21T15:07:37.791Z,2.90
2023-04-21T15:08:52.979Z,2.10
2023-04-21T15:10:00.955Z,1.30
2023-04-21T15:13:08.156Z,1.30
2023-04-21T15:14:09.137Z,1.20
2023-04-21T15:15:10.785Z,1.50
2023-04-21T15:16:36.737Z,1.10
2023-04-21T15:18:41.838Z,1.70
2023-04-21T15:19:36.064Z,1.20
2023-04-21T15:20:54.291Z,1.10
2023-04-21T15:22:46.780Z,1.60
2023-04-21T15:25:56.507Z,1.40
2023-04-21T15:28:40.412Z,1.60
2023-04-21T15:30:57.487Z,1.10
2023-04-21T15:32:33.617Z,1.10
2023-04-21T15:33:33.554Z,1.10
2023-04-21T15:34:56.908Z,1.20
2023-04-21T15:39:20.124Z,1.30
2023-04-21T15:42:29.065Z,1.50
2023-04-21T15:43:04.272Z,1.40
2023-04-21T15:44:32.873Z,1.30
2023-04-21T15:45:04.248Z,1.50
2023-04-21T15:46:13.037Z,1.50
2023-04-21T15:47:48.980Z,1.30
2023-04-21T15:51:24.920Z,1.90
2023-04-21T15:52:30.571Z,1.90
2023-04-21T15:54:36.783Z,2.80
2023-04-21T15:55:37.979Z,2.50
2023-04-21T15:56:37.334Z,2.10
2023-04-21T15:57:37.234Z,1.90
2023-04-21T15:58:37.226Z,1.50
2023-04-21T15:59:37.199Z,1.50
2023-04-21T16:00:45.622Z,1.60
2023-04-21T16:01:37.321Z,1.50
2023-04-21T16:02:37.500Z,1.70
2023-04-21T16:03:52.784Z,1.20
2023-04-21T16:04:38.939Z,1.50
2023-04-21T16:05:53.226Z,1.50
2023-04-21T16:06:40.027Z,1.90
2023-04-21T16:07:41.651Z,1.80
2023-04-21T16:08:41.631Z,1.90
2023-04-21T16:09:40.187Z,2.40
2023-04-21T16:10:46.124Z,2.90
2023-04-21T16:11:37.557Z,6.30
2023-04-21T16:12:40.755Z,2.80
2023-04-21T16:13:37.990Z,2.80
2023-04-21T16:14:51.250Z,1.80
2023-04-21T16:15:37.113Z,3.80
2023-04-21T16:16:37.168Z,2.70
2023-04-21T16:17:37.129Z,10.50
2023-04-21T16:18:37.204Z,19.70
2023-04-21T16:19:37.036Z,1.70
2023-04-21T16:20:37.057Z,1.30
2023-04-21T16:22:51.246Z,1.10
2023-04-21T16:24:12.819Z,1.00
2023-04-21T16:24:48.092Z,0.90
2023-04-21T16:26:58.613Z,1.50
2023-04-21T16:28:00.826Z,1.30
2023-04-21T16:29:02.224Z,1.30
2023-04-21T16:30:00.289Z,1.40
2023-04-21T16:31:34.735Z,2.20
2023-04-21T16:31:59.564Z,1.40
2023-04-21T16:32:59.670Z,1.20
2023-04-21T16:33:59.662Z,1.70
2023-04-21T16:34:59.557Z,1.30
2023-04-21T16:37:57.620Z,1.10
2023-04-21T16:39:26.969Z,0.90
2023-04-21T16:41:08.958Z,1.30
2023-04-21T16:42:12.661Z,1.20
2023-04-21T16:43:11.111Z,1.30
2023-04-21T16:44:11.651Z,1.20
2023-04-21T16:45:09.892Z,1.10
2023-04-21T16:46:25.469Z,1.00
2023-04-21T16:47:20.645Z,1.80
2023-04-21T16:48:36.338Z,1.00
2023-04-21T16:49:26.622Z,1.10
2023-04-21T16:50:17.443Z,1.30
2023-04-21T16:51:09.874Z,1.10
2023-04-21T16:52:11.586Z,1.20
2023-04-21T16:53:24.414Z,1.20
2023-04-21T16:54:30.711Z,1.30
2023-04-21T16:55:09.788Z,1.10
2023-04-21T16:56:29.966Z,1.20
2023-04-21T16:59:18.142Z,1.40
2023-04-21T17:00:18.001Z,1.20
2023-04-21T17:01:14.020Z,1.40
2023-04-21T17:02:18.806Z,1.30
2023-04-21T17:03:12.168Z,6.10
2023-04-21T17:04:17.513Z,1.70
2023-04-21T17:05:08.797Z,1.60
2023-04-21T17:06:46.047Z,1.50
2023-04-21T17:07:11.582Z,1.70
2023-04-21T17:08:34.581Z,1.60
2023-04-21T17:09:09.495Z,1.50
2023-04-21T17:10:31.050Z,1.50
2023-04-21T17:11:43.949Z,1.40
2023-04-21T17:12:08.734Z,1.20
2023-04-21T17:13:08.690Z,1.80
2023-04-21T17:14:08.679Z,1.20
2023-04-21T17:15:11.572Z,1.20
2023-04-21T17:16:31.122Z,1.20
2023-04-21T17:17:09.527Z,1.70
2023-04-21T17:18:11.568Z,1.40
2023-04-21T17:19:16.057Z,1.50
2023-04-21T17:20:32.548Z,1.50
2023-04-21T17:21:16.126Z,1.50
2023-04-21T17:22:50.071Z,1.60
2023-04-21T17:23:16.050Z,1.40
2023-04-21T17:24:17.577Z,1.70
2023-04-21T17:26:28.358Z,2.20
2023-04-21T17:27:37.759Z,3.10
2023-04-21T17:28:39.049Z,2.70
2023-04-21T17:29:46.331Z,3.90
2023-04-21T17:31:38.868Z,1.60
2023-04-21T17:33:15.493Z,1.80
2023-04-21T17:33:39.389Z,1.90
2023-04-21T17:35:03.280Z,1.60
2023-04-21T17:36:02.707Z,1.80
2023-04-21T17:36:38.080Z,1.50
2023-04-21T17:37:39.897Z,1.50
2023-04-21T17:38:53.242Z,1.70
2023-04-21T17:40:05.887Z,1.80
2023-04-21T17:40:36.862Z,1.70
2023-04-21T17:41:52.841Z,1.70
2023-04-21T17:42:36.345Z,1.90
2023-04-21T17:43:45.777Z,2.10
2023-04-21T17:45:35.017Z,1.90
2023-04-21T17:46:40.362Z,1.80
2023-04-21T17:47:42.359Z,1.80
2023-04-21T17:48:34.944Z,1.70
2023-04-21T17:49:34.925Z,1.50
2023-04-21T17:50:34.970Z,1.70
2023-04-21T17:51:34.886Z,1.90
2023-04-21T17:52:37.738Z,1.70
2023-04-21T17:53:56.774Z,2.00
2023-04-21T17:54:46.348Z,1.80
2023-04-21T17:55:41.841Z,1.60
2023-04-21T17:57:03.773Z,1.90
2023-04-21T17:57:46.359Z,1.70
2023-04-21T17:58:34.868Z,2.00
2023-04-21T18:01:01.568Z,1.80
2023-04-21T18:02:00.618Z,1.80
2023-04-21T18:03:20.129Z,1.70
2023-04-21T18:04:00.957Z,1.80
2023-04-21T18:05:05.422Z,2.20
2023-04-21T18:05:58.948Z,2.10
2023-04-21T18:07:05.635Z,2.10
2023-04-21T18:08:03.140Z,2.40
2023-04-21T18:09:00.135Z,2.50
2023-04-21T18:09:58.855Z,2.10
2023-04-21T18:10:58.864Z,2.30
2023-04-21T18:11:58.900Z,2.20
2023-04-21T18:12:59.897Z,2.20
2023-04-21T18:13:58.933Z,2.10
2023-04-21T18:16:11.552Z,2.00
2023-04-21T18:17:17.321Z,2.10
2023-04-21T18:18:11.564Z,2.00
2023-04-21T18:19:13.143Z,2.20
2023-04-21T18:21:53.054Z,2.00
2023-04-21T18:22:38.568Z,2.00
2023-04-21T18:23:36.421Z,2.00
2023-04-21T18:24:21.871Z,2.10
2023-04-21T18:25:40.790Z,2.50
2023-04-21T18:26:22.965Z,2.80
2023-04-21T18:27:26.544Z,2.40
2023-04-21T18:31:14.838Z,2.20
2023-04-21T18:32:27.865Z,2.10
2023-04-21T18:32:58.410Z,2.40
2023-04-21T18:34:29.696Z,2.20
2023-04-21T18:35:16.242Z,3.60
2023-04-21T18:35:54.345Z,3.20